Time;durP1;ratioP1;P1;durP2;ratioP2;P2;SDS_P1;SDS_P2;PMS_P1;PMS_P2;Temp;Humidity;BMP_temperature;BMP_pressure;BME280_temperature;BME280_humidity;BME280_pressure;Samples;Min_cycle;Max_cycle;Signal;HPM_P1;HPM_P2
2021/04/16 00:02:51;;;;;;;;;;;1.50;90.30;;;-0.14;63.45;96293.91;10351239;28;1944;-78
2021/04/16 00:07:54;;;;;;;;;;;2.80;91.50;;;-0.23;63.65;96284.50;10345106;28;1971;-76
2021/04/16 00:12:55;;;;;;;;;;;1.00;90.90;;;-0.32;64.49;96275.09;10341384;28;2050;-78
2021/04/16 00:17:57;;;;;;;;;;;2.40;92.10;;;-0.32;64.68;96275.09;10327533;28;1836;-79
2021/04/16 00:22:59;;;;;;;;;;;0.90;92.10;;;-0.18;64.60;96273.38;10336315;28;1749;-78
2021/04/16 00:28:01;;;;;;;;;;;0.90;92.60;;;-0.25;64.79;96268.03;10355844;28;1832;-79
2021/04/16 00:33:03;;;;;;;;;;;0.90;92.80;;;-0.25;65.04;96268.03;10332066;28;1966;-77
2021/04/16 00:38:04;;;;;;;;;;;0.90;93.30;;;-0.31;65.48;96266.19;10325278;28;1915;-77
2021/04/16 00:43:06;;;;;;;;;;;0.80;93.40;;;-0.31;66.31;96272.28;10325412;28;2022;-77
2021/04/16 00:48:08;;;;;;;;;;;0.90;94.00;;;-0.34;66.08;96258.63;10332655;28;2040;-77
2021/04/16 00:53:09;;;;;;;;;;;0.80;93.90;;;-0.26;65.59;96263.75;10330844;28;1973;-78
2021/04/16 00:58:11;;;;;;;;;;;0.80;94.30;;;-0.43;66.80;96257.16;10322799;28;2009;-77
2021/04/16 01:03:13;;;;;;;;;;;0.80;94.60;;;-0.47;66.72;96258.53;10329300;28;3360;-77
2021/04/16 01:08:15;;;;;;;;;;;0.70;95.00;;;-0.55;67.00;96256.84;10322245;28;2971;-78
2021/04/16 01:13:17;;;;;;;;;;;0.70;95.40;;;-0.53;67.07;96235.53;10323642;28;2513;-78
2021/04/16 01:18:18;;;;;;;;;;;0.60;95.70;;;-0.65;67.91;96248.44;10322081;28;1784;-77
2021/04/16 01:23:20;;;;;;;;;;;1.60;96.30;;;-0.69;68.00;96245.38;10304111;28;3186;-77
2021/04/16 01:28:22;;;;;;;;;;;0.50;96.50;;;-0.76;67.83;96252.44;10323044;28;2011;-79
2021/04/16 01:33:24;;;;;;;;;;;0.40;96.70;;;-0.86;69.62;96242.19;10326679;28;1995;-78
2021/04/16 01:38:26;;;;;;;;;;;0.40;97.30;;;-0.96;69.52;96246.97;10323424;28;2041;-77
2021/04/16 01:43:27;;;;;;;;;;;0.30;97.70;;;-1.11;69.54;96238.31;10318132;28;1789;-76
2021/04/16 01:48:30;;;;;;;;;;;0.20;97.80;;;-1.01;69.40;96240.66;10327839;28;2218;-78
2021/04/16 01:53:32;;;;;;;;;;;0.10;98.80;;;-1.04;69.75;96233.09;10321443;28;2076;-78
2021/04/16 01:58:34;;;;;;;;;;;0.20;98.80;;;-1.23;70.25;96235.38;10326441;28;2143;-79
2021/04/16 02:03:36;;;;;;;;;;;0.60;99.10;;;-1.33;70.90;96226.97;10309729;28;1969;-78
2021/04/16 02:08:37;;;;;;;;;;;0.00;99.50;;;-1.24;71.24;96236.38;10329002;28;2047;-78
2021/04/16 02:13:39;;;;;;;;;;;0.00;99.90;;;-1.26;71.33;96227.84;10314503;28;2118;-77
2021/04/16 02:18:41;;;;;;;;;;;-0.10;99.90;;;-1.17;71.09;96224.06;10330881;28;2050;-77
2021/04/16 02:23:43;;;;;;;;;;;0.00;99.90;;;-1.01;71.10;96227.47;10341593;28;2128;-78
2021/04/16 02:28:45;;;;;;;;;;;0.10;99.90;;;-1.27;72.18;96220.94;10326505;28;2096;-77
2021/04/16 02:33:47;;;;;;;;;;;0.00;99.90;;;-1.40;72.14;96223.41;10317688;28;2115;-77
2021/04/16 02:38:49;;;;;;;;;;;-0.10;99.90;;;-1.29;72.41;96212.38;10333197;28;2418;-78
2021/04/16 02:43:50;;;;;;;;;;;-0.10;99.90;;;-1.19;71.89;96209.44;10316926;28;2055;-78
2021/04/16 02:48:52;;;;;;;;;;;-0.10;99.90;;;-1.38;73.29;96221.44;10337735;28;2088;-79
2021/04/16 02:53:54;;;;;;;;;;;0.80;99.90;;;-1.47;73.61;96217.28;10336867;28;2051;-78
2021/04/16 02:58:57;;;;;;;;;;;1.80;99.90;;;-1.43;73.33;96216.72;10328339;28;2063;-77
2021/04/16 03:03:59;;;;;;;;;;;-0.30;99.90;;;-1.56;74.37;96210.50;10335105;28;2054;-77
2021/04/16 03:09:01;;;;;;;;;;;-0.40;99.90;;;-1.33;73.77;96202.41;10323927;28;2124;-78
2021/04/16 03:14:03;;;;;;;;;;;-0.30;99.90;;;-1.58;73.71;96207.25;10331177;28;2087;-77
2021/04/16 03:19:06;;;;;;;;;;;-0.30;99.90;;;-1.67;74.46;96201.25;10309529;28;2171;-76
2021/04/16 03:24:07;;;;;;;;;;;0.00;99.90;;;-1.73;74.88;96202.81;10331074;28;2021;-77
2021/04/16 03:29:09;;;;;;;;;;;-0.50;99.90;;;-1.84;76.06;96197.22;10329719;28;2180;-78
2021/04/16 03:34:11;;;;;;;;;;;-0.60;99.90;;;-1.82;75.58;96203.94;10328018;28;2036;-78
2021/04/16 03:39:13;;;;;;;;;;;-0.60;99.90;;;-1.85;75.22;96196.38;10310826;28;2039;-78
2021/04/16 03:44:14;;;;;;;;;;;-0.60;99.90;;;-1.76;75.70;96197.09;10320832;28;1987;-77
2021/04/16 03:49:16;;;;;;;;;;;-0.60;99.90;;;-1.82;76.35;96198.66;10333066;28;1946;-79
2021/04/16 03:54:18;;;;;;;;;;;-0.70;99.90;;;-2.00;76.25;96203.50;10331728;28;2051;-77
2021/04/16 03:59:20;;;;;;;;;;;-0.70;99.90;;;-1.89;76.51;96203.03;10306024;28;2348;-78
2021/04/16 04:04:21;;;;;;;;;;;-0.70;99.90;;;-1.85;76.63;96208.75;10344134;28;1959;-78
2021/04/16 04:09:24;;;;;;;;;;;-0.80;99.90;;;-1.85;76.70;96204.28;10332647;28;2058;-77
2021/04/16 04:14:25;;;;;;;;;;;-0.80;99.90;;;-1.89;76.98;96212.78;10329485;28;1868;-78
2021/04/16 04:19:47;;;;;;;;;;;-0.70;99.90;;;-1.87;77.07;96208.94;10325850;28;2038;-78
2021/04/16 04:25:09;;;;;;;;;;;-0.80;99.90;;;-1.98;77.70;96215.50;10341621;28;1939;-76
2021/04/16 04:30:10;;;;;;;;;;;-0.70;99.90;;;-1.95;78.19;96219.59;10307475;28;1985;-76
2021/04/16 04:35:12;;;;;;;;;;;-0.80;99.90;;;-1.84;77.41;96218.31;10321359;28;2001;-77
2021/04/16 04:40:14;;;;;;;;;;;-0.80;99.90;;;-1.69;77.55;96217.25;10313553;28;1783;-78
2021/04/16 04:45:15;;;;;;;;;;;-0.60;99.90;;;-1.45;76.60;96223.19;10319977;28;2010;-76
2021/04/16 04:50:17;;;;;;;;;;;-0.50;99.90;;;-1.40;77.10;96229.53;10304850;28;1895;-76
2021/04/16 04:55:19;;;;;;;;;;;-0.30;99.90;;;-1.33;76.69;96223.50;10321672;28;2033;-77
2021/04/16 05:00:20;;;;;;;;;;;-0.20;99.90;;;-1.33;76.33;96229.59;10333253;28;1998;-77
2021/04/16 05:05:22;;;;;;;;;;;-0.20;99.90;;;-1.21;76.49;96228.09;10318014;28;1954;-78
2021/04/16 05:10:24;;;;;;;;;;;-0.20;99.90;;;-0.75;75.83;96217.13;10316888;28;1975;-77
2021/04/16 05:15:26;;;;;;;;;;;0.10;99.90;;;-0.43;75.26;96228.91;10313972;28;1816;-76
2021/04/16 05:20:27;;;;;;;;;;;0.40;99.90;;;-0.31;75.20;96222.06;10322107;28;2046;-77
2021/04/16 05:25:29;;;;;;;;;;;1.70;99.90;;;0.22;72.73;96227.59;10317477;28;1983;-78
2021/04/16 05:30:31;;;;;;;;;;;1.00;99.90;;;0.40;71.35;96229.72;10315191;28;2256;-77
2021/04/16 05:35:32;;;;;;;;;;;1.80;99.90;;;0.53;71.36;96232.41;10323558;28;1843;-79
2021/04/16 05:40:34;;;;;;;;;;;1.40;99.90;;;0.70;70.86;96229.38;10332403;28;2023;-78
2021/04/16 05:45:36;;;;;;;;;;;1.70;99.90;;;0.92;70.56;96230.84;10314696;28;1932;-78
2021/04/16 05:50:38;;;;;;;;;;;1.80;99.90;;;1.20;69.53;96227.19;10319145;28;1914;-79
2021/04/16 05:55:40;;;;;;;;;;;2.10;99.90;;;1.39;69.22;96231.66;10320579;28;2017;-78
2021/04/16 06:00:42;;;;;;;;;;;2.40;99.90;;;1.33;69.74;96232.47;10303399;28;2031;-76
2021/04/16 06:05:44;;;;;;;;;;;2.40;99.90;;;1.66;68.59;96231.66;10324036;28;1723;-80
2021/04/16 06:10:47;;;;;;;;;;;3.20;99.90;;;1.98;67.74;96228.13;10308755;28;1992;-80
2021/04/16 06:15:49;;;;;;;;;;;2.80;99.90;;;1.89;67.48;96227.53;10321666;28;2295;-79
2021/04/16 06:20:51;;;;;;;;;;;3.00;99.90;;;1.69;68.01;96231.25;10307513;28;2043;-78
2021/04/16 06:25:53;;;;;;;;;;;2.90;99.90;;;1.86;67.67;96222.66;10320376;28;1962;-80
2021/04/16 06:30:56;;;;;;;;;;;3.00;99.90;;;1.72;67.15;96214.91;10306888;28;1998;-80
2021/04/16 06:35:58;;;;;;;;;;;3.10;99.90;;;2.17;65.56;96215.81;10317643;28;1947;-79
2021/04/16 06:41:00;;;;;;;;;;;3.10;99.90;;;2.31;65.80;96216.59;10307498;28;2810;-79
2021/04/16 06:46:02;;;;;;;;;;;3.20;99.90;;;2.36;65.82;96214.94;10302534;28;1920;-80
2021/04/16 06:51:04;;;;;;;;;;;3.30;99.90;;;2.53;65.13;96211.78;10310583;28;1996;-79
2021/04/16 06:56:07;;;;;;;;;;;3.40;99.90;;;2.61;63.92;96203.59;10320025;28;1980;-83
2021/04/16 07:01:11;;;;;;;;;;;3.70;99.90;;;2.93;63.17;96212.38;10329755;28;2030;-83
2021/04/16 07:06:13;;;;;;;;;;;3.90;99.90;;;2.86;63.03;96216.88;10330303;28;1947;-80
2021/04/16 07:11:15;;;;;;;;;;;3.90;99.90;;;2.91;62.77;96214.41;10316757;28;2127;-83
2021/04/16 07:16:18;;;;;;;;;;;3.90;99.90;;;3.18;61.44;96221.19;10328293;28;1902;-84
2021/04/16 07:21:21;;;;;;;;;;;4.30;99.90;;;3.14;61.26;96208.53;10318516;28;1954;-82
2021/04/16 07:27:09;;;;;;;;;;;4.40;99.90;;;3.72;59.89;96211.69;10332461;28;2128;-82
2021/04/16 07:44:23;;;;;;;;;;;6.50;99.60;;;3.84;57.71;96221.63;10148032;29;1995;-85
2021/04/16 08:00:46;;;;;;;;;;;5.80;99.80;;;2.37;62.09;96232.47;10057924;29;2307;-81
2021/04/16 08:05:49;;;;;;;;;;;3.80;99.90;;;2.62;61.58;96232.56;10298695;28;2313;-79
2021/04/16 08:10:51;;;;;;;;;;;4.50;99.90;;;3.17;59.64;96224.84;10317131;28;2003;-81
2021/04/16 08:15:54;;;;;;;;;;;3.80;99.90;;;3.78;57.53;96220.66;10320391;28;1761;-80
2021/04/16 08:27:07;;;;;;;;;;;5.80;97.00;;;3.81;54.50;96225.50;10257809;28;1980;-79
2021/04/16 08:32:32;;;;;;;;;;;5.20;95.30;;;3.92;54.78;96231.97;10274542;28;2088;-83
2021/04/16 09:08:20;;;;;;;;;;;8.90;77.00;;;6.73;42.45;96200.47;10058020;29;1984;-80
2021/04/16 09:19:12;;;;;;;;;;;8.80;76.70;;;8.57;39.14;96188.84;10280646;29;1959;-82
2021/04/16 09:24:37;;;;;;;;;;;10.20;75.10;;;7.59;39.45;96198.47;10298762;28;1767;-84
2021/04/16 09:53:15;;;;;;;;;;;8.20;72.80;;;7.42;42.03;96198.47;10250196;28;1931;-79
2021/04/16 09:58:26;;;;;;;;;;;9.40;72.70;;;7.34;42.19;96190.84;10289216;28;2055;-81
2021/04/16 10:03:31;;;;;;;;;;;8.90;72.40;;;7.19;41.60;96194.09;10268433;28;1980;-82
2021/04/16 10:08:34;;;;;;;;;;;8.10;71.50;;;7.65;40.55;96180.66;10260652;28;1924;-80
2021/04/16 10:13:36;;;;;;;;;;;9.30;71.70;;;7.41;40.94;96180.81;10256077;28;1979;-79
2021/04/16 10:18:45;;;;;;;;;;;8.10;70.90;;;7.21;39.86;96180.47;10260304;28;1829;-81
2021/04/16 10:23:52;;;;;;;;;;;8.40;68.60;;;7.10;40.60;96178.69;10270669;28;1971;-81
2021/04/16 13:07:37;;;;;;;;;;;8.20;67.40;;;6.40;42.73;96127.22;10148029;29;2055;-83
2021/04/16 17:53:52;;;;;;;;;;;7.00;79.60;;;3.98;53.98;96112.19;10102229;29;2008;-82
2021/04/16 18:05:08;;;;;;;;;;;5.70;80.60;;;3.75;55.45;96120.88;10225842;28;2102;-80
2021/04/16 18:10:53;;;;;;;;;;;;;;;;;;;;;
2021/04/16 18:22:33;;;;;;;;;;;5.30;82.60;;;3.45;57.16;96135.91;10290400;28;2038;-81
2021/04/16 19:09:50;;;;;;;;;;;;;;;;;;;;;
2021/04/16 19:22:08;;;;;;;;;;;3.70;86.10;;;2.73;60.66;96196.53;10137673;29;1413;-78
2021/04/16 19:46:44;;;;;;;;;;;;;;;;;;;;;
2021/04/16 20:22:46;;;;;;;;;;;3.00;91.70;;;1.95;64.85;96209.16;10255228;28;1641;-82
2021/04/16 20:46:38;;;;;;;;;;;2.80;93.20;;;1.74;66.31;96203.09;10151749;29;2122;-82
2021/04/16 21:22:15;;;;;;;;;;;3.70;96.80;;;1.59;67.79;96213.94;10174676;29;1618;-79
2021/04/16 21:27:42;;;;;;;;;;;2.70;97.00;;;1.51;68.21;96216.78;10037583;29;1556;-81
2021/04/16 21:38:51;;;;;;;;;;;2.70;97.80;;;1.56;68.08;96219.63;10166814;29;1723;-80
2021/04/16 21:44:29;;;;;;;;;;;2.70;97.80;;;1.43;68.88;96214.34;10139901;29;2301;-80
2021/04/16 21:50:28;;;;;;;;;;;3.10;98.40;;;1.31;69.10;96213.34;10203192;28;2101;-81
2021/04/16 22:18:37;;;;;;;;;;;3.40;99.90;;;1.42;70.05;96209.28;10150514;29;2329;-80
2021/04/16 22:48:11;;;;;;;;;;;2.70;99.90;;;1.53;70.08;96196.22;10172747;29;2312;-80
2021/04/16 23:05:54;;;;;;;;;;;3.70;99.90;;;1.79;69.83;96191.88;10200944;29;2187;-82
